Kenilworth, New Jersey
Current Conditions -  °F | °C
As of 2:35 AM on Thursday 18 Dec 2014 (Local Time) from KLDJ Reporting Station
Overcast Overcast  
Wind Chill: 35°   Ceiling: 4600
Heat Index: 42°   Visibility: 10mi
Dew Point: 28°   Wind: 14mph
Humidity: 58%   Direction: 290°WNW
Pressure: 29.94"   Gusts: 18mph
Location:  40.68°N, 74.29°W
Report Text: KLDJ 180735Z AUTO 29012G16KT 10SM BKN046 BKN060 OVC075 06/M02 A2994 RMK AO2 T00561020
Loading
Personal Weather Stations






























Interactive Weather Map New forecast layout! Learn more

10-Day Weather Forecast

Advertisements
Track Severe Weather on mobile